• Join FlightAware (Why Join?)
  • Login
  • US Flag 
05:04AM EDT


 

Airport Tracker/Info


-or-


 

Live Flight TrackerFlight Track Log ✈ FIN666 ✈ 31-Dec-2013 ✈ EKCH / CPH - EFHK / HEL

Flight Track Log - Related Links

Times and Time Zones

All times are in EST time to prevent confusion due to time zone crossing. See the FIN666 flight status page for this flight to view local times or setup timezone preferences in your user account.

Time Position Orientation Groundspeed Altitude Reporting Facility
EST Latitude Longitude Course Direction KTS MPH feet Rate Location/Type
07:21AM 55.8486 13.1329 49° Northeast  Level Estimated
07:22AM 55.9251 13.2931 50° Northeast  Level Estimated
07:23AM 56.0014 13.4539 50° Northeast  Level Estimated
07:24AM 56.0774 13.6154 50° Northeast  Level Estimated
07:25AM 56.1533 13.7775 50° Northeast  Level Estimated
07:26AM 56.2312 13.9453 50° Northeast  Level Estimated
07:27AM 56.3089 14.1137 50° Northeast  Level Estimated
07:28AM 56.3864 14.2827 50° Northeast  Level Estimated
07:29AM 56.4636 14.4525 50° Northeast  Level Estimated
07:30AM 56.5406 14.6230 51° Northeast  Level Estimated
07:31AM 56.6174 14.7941 51° Northeast  Level Estimated
07:32AM 56.6940 14.9660 51° Northeast  Level Estimated
07:33AM 56.7702 15.1385 51° Northeast  Level Estimated
07:34AM 56.8463 15.3118 51° Northeast  Level Estimated
07:35AM 56.9221 15.4857 51° Northeast  Level Estimated
07:36AM 56.9977 15.6604 51° Northeast  Level Estimated
07:37AM 57.0730 15.8357 52° Northeast  Level Estimated
07:38AM 57.1481 16.0118 52° Northeast  Level Estimated
07:39AM 57.2230 16.1886 52° Northeast  Level Estimated
07:40AM 57.2976 16.3661 52° Northeast  Level Estimated
07:41AM 57.3719 16.5444 52° Northeast  Level Estimated
07:42AM 57.4460 16.7233 52° Northeast  Level Estimated
07:43AM 57.5198 16.9030 53° Northeast  Level Estimated
07:44AM 57.5934 17.0834 53° Northeast  Level Estimated
07:45AM 57.6667 17.2645 53° Northeast  Level Estimated
07:46AM 57.7398 17.4464 53° Northeast  Level Estimated
07:47AM 57.8126 17.6290 53° Northeast  Level Estimated
07:48AM 57.8851 17.8124 53° Northeast  Level Estimated
07:49AM 57.9574 17.9965 53° Northeast  Level Estimated
07:50AM 58.0294 18.1813 54° Northeast  Level Estimated
07:51AM 58.1011 18.3669 54° Northeast  Level Estimated
07:52AM 58.1726 18.5532 54° Northeast  Level Estimated
07:53AM 58.2438 18.7402 54° Northeast  Level Estimated
07:54AM 58.3147 18.9281 54° Northeast  Level Estimated
07:55AM 58.3853 19.1166 54° Northeast  Level Estimated
07:56AM 58.4557 19.3060 55° Northeast  Level Estimated
07:57AM 58.5258 19.4960 55° Northeast  Level Estimated
07:58AM 58.5956 19.6869 55° Northeast  Level Estimated
07:59AM 58.6651 19.8785 55° Northeast  Level Estimated
08:00AM 58.7343 20.0709 55° Northeast  Level Estimated
08:01AM 58.8032 20.2640 55° Northeast  Level Estimated
08:02AM 58.8719 20.4579 56° Northeast  Level Estimated
08:03AM 58.9403 20.6526 56° Northeast  Level Estimated
08:04AM 59.0083 20.8480 56° Northeast  Level Estimated
08:05AM 59.0761 21.0442 56° Northeast  Level Estimated
08:06AM 59.1426 21.2383 56° Northeast  Level Estimated
08:07AM 59.2088 21.4331 56° Northeast  Level Estimated
08:08AM 59.2746 21.6286 57° Northeast  Level Estimated
08:09AM 59.3402 21.8249 57° Northeast  Level Estimated
08:10AM 59.4055 22.0220 57° Northeast  Level Estimated
08:11AM 59.4705 22.2198 57° Northeast  Level Estimated
08:12AM 59.5352 22.4184 57° Northeast  Level Estimated
08:13AM 59.5996 22.6178 57° Northeast  Level Estimated
08:14AM 59.6637 22.8179 58° Northeast  Level Estimated
08:15AM 59.7275 23.0188 58° Northeast  Level Estimated
08:16AM 59.7910 23.2204 58° Northeast  Level Estimated
08:17AM 59.8542 23.4228 58° Northeast  Level Estimated
08:18AM 59.9170 23.6260 58° Northeast  Level Estimated
08:19AM 59.9796 23.8299 58° Northeast  Level Estimated
08:20AM 60.0418 24.0347 59° Northeast  Level Estimated
08:21AM 60.1037 24.2402 59° Northeast  Level Estimated
08:22AM 60.1653 24.4464 59° Northeast  Level Estimated
08:23AM 60.2266 24.6535 59° Northeast  Level Estimated
08:24AM 60.2875 24.8613 59° Northeast  Level Estimated
08:25AM 60.3172 24.9633 60° Northeast  Level Estimated
08:26AM 60.3172 24.9633 37° Northeast  Level Estimated
08:27AM 60.3172 24.9633 37° Northeast  Level Estimated
08:28AM 60.3172 24.9633 37° Northeast  Level Estimated
08:29AM 60.3172 24.9633 37° Northeast  Level Estimated
08:30AM 60.3172 24.9633 37° Northeast  Level Estimated
08:31AM 60.3172 24.9633 37° Northeast  Level Estimated
08:32AM 60.3172 24.9633 37° Northeast  Level Estimated
08:33AM 60.3172 24.9633 37° Northeast  Level Estimated
08:34AM 60.3172 24.9633 37° Northeast  Level Estimated
08:35AM 60.3172 24.9633 37° Northeast  Level Estimated
08:36AM 60.3172 24.9633 37° Northeast  Level Estimated
08:37AM 60.3172 24.9633 37° Northeast  Level Estimated
08:38AM 60.3172 24.9633 37° Northeast  Level Estimated
08:39AM 60.3172 24.9633 37° Northeast  Level Estimated